Time,TemperatureF,DewpointF,PressureIn,WindDirection,WindDirectionDegrees,WindSpeedMPH,WindSpeedGustMPH,Humidity,HourlyPrecipIn,Conditions,Clouds,dailyrainin,SolarRadiationWatts/m^2,SoftwareType,DateUTC
2013-01-07 00:00:00,52.2,50.8,30.13,North,351,0.0,0.0,95,0.00,-RA,,0.00,0.0,WeatherDisplay:10.37,2013-01-07 05:00:00,
2013-01-07 00:01:00,52.2,50.8,30.13,North,351,0.0,0.0,95,0.00,-RA,,0.00,0.0,WeatherDisplay:10.37,2013-01-07 05:01:00,
2013-01-07 00:06:00,52.2,50.5,30.13,North,351,0.0,0.0,94,0.00,-RA,,0.00,0.0,WeatherDisplay:10.37,2013-01-07 05:06:00,
2013-01-07 00:11:00,52.0,50.3,30.13,North,351,0.0,0.0,94,0.00,-RA,,0.00,0.0,WeatherDisplay:10.37,2013-01-07 05:11:00,
2013-01-07 00:16:00,51.9,50.5,30.13,North,351,0.0,0.0,95,0.00,OVC,,0.00,0.0,WeatherDisplay:10.37,2013-01-07 05:16:00,
2013-01-07 00:21:00,51.7,50.0,30.13,North,351,0.0,0.0,94,0.00,OVC,,0.00,0.0,WeatherDisplay:10.37,2013-01-07 05:21:00,
2013-01-07 00:26:00,51.8,50.4,30.13,North,351,0.0,0.0,95,0.00,OVC,,0.00,0.0,WeatherDisplay:10.37,2013-01-07 05:26:00,
2013-01-07 00:31:00,51.8,50.4,30.14,North,351,0.0,0.0,95,0.00,OVC,,0.00,0.0,WeatherDisplay:10.37,2013-01-07 05:31:00,
2013-01-07 00:36:00,52.1,50.7,30.14,North,351,0.0,0.0,95,0.00,OVC,,0.00,0.0,WeatherDisplay:10.37,2013-01-07 05:36:00,
2013-01-07 00:42:00,52.1,50.7,30.14,North,351,0.0,0.0,95,0.00,OVC,,0.00,0.0,WeatherDisplay:10.37,2013-01-07 05:42:00,
2013-01-07 00:47:00,52.0,50.6,30.15,North,351,0.0,0.0,95,0.00,OVC,,0.00,0.0,WeatherDisplay:10.37,2013-01-07 05:47:00,
2013-01-07 00:52:00,51.7,50.3,30.15,North,351,0.0,0.0,95,0.00,OVC,,0.00,0.0,WeatherDisplay:10.37,2013-01-07 05:52:00,
2013-01-07 00:57:00,51.6,50.2,30.15,North,351,0.0,0.0,95,0.00,OVC,,0.00,0.0,WeatherDisplay:10.37,2013-01-07 05:57:00,
2013-01-07 01:02:00,51.4,50.0,30.15,North,351,0.0,0.0,95,0.00,OVC,,0.00,0.0,WeatherDisplay:10.37,2013-01-07 06:02:00,
2013-01-07 01:07:00,51.5,50.1,30.15,North,351,1.4,1.4,95,0.00,OVC,,0.00,0.0,WeatherDisplay:10.37,2013-01-07 06:07:00,
2013-01-07 01:12:00,51.4,50.0,30.15,North,351,2.3,2.3,95,0.00,OVC,,0.00,0.0,WeatherDisplay:10.37,2013-01-07 06:12:00,
2013-01-07 01:17:00,51.3,49.9,30.14,North,351,1.4,1.4,95,0.00,OVC,,0.00,0.0,WeatherDisplay:10.37,2013-01-07 06:17:00,
2013-01-07 01:22:00,51.2,49.5,30.14,North,351,2.3,2.3,94,0.00,OVC,,0.00,0.0,WeatherDisplay:10.37,2013-01-07 06:22:00,
2013-01-07 01:27:00,51.3,49.6,30.14,NNE,13,1.1,1.1,94,0.00,OVC,,0.00,0.0,WeatherDisplay:10.37,2013-01-07 06:27:00,
2013-01-07 01:32:00,51.4,49.7,30.13,NNE,13,4.6,4.6,94,0.00,OVC,,0.00,0.0,WeatherDisplay:10.37,2013-01-07 06:32:00,
2013-01-07 01:37:00,51.4,49.7,30.13,North,355,8.1,8.1,94,0.00,OVC,,0.00,0.0,WeatherDisplay:10.37,2013-01-07 06:37:00,
2013-01-07 01:42:00,51.4,49.4,30.13,North,355,1.4,1.4,93,0.00,OVC,,0.00,0.0,WeatherDisplay:10.37,2013-01-07 06:42:00,
2013-01-07 01:47:00,51.5,49.5,30.13,North,355,0.0,0.2,93,0.00,OVC,,0.00,0.0,WeatherDisplay:10.37,2013-01-07 06:47:00,
2013-01-07 01:52:00,51.5,49.5,30.13,North,355,2.3,2.3,93,0.00,OVC,,0.00,0.0,WeatherDisplay:10.37,2013-01-07 06:52:00,
2013-01-07 01:57:00,51.5,49.5,30.13,North,355,4.6,4.6,93,0.00,OVC,,0.00,0.0,WeatherDisplay:10.37,2013-01-07 06:57:00,
2013-01-07 02:02:00,51.5,49.5,30.13,North,355,2.3,2.3,93,0.00,OVC,,0.00,0.0,WeatherDisplay:10.37,2013-01-07 07:02:00,
2013-01-07 02:07:00,51.4,49.4,30.13,North,355,4.6,4.6,93,0.00,OVC,,0.00,0.0,WeatherDisplay:10.37,2013-01-07 07:07:00,
2013-01-07 02:12:00,51.4,49.4,30.13,North,360,0.0,0.0,93,0.00,OVC,,0.00,0.0,WeatherDisplay:10.37,2013-01-07 07:12:00,
2013-01-07 02:17:00,51.4,49.4,30.13,North,360,1.1,1.1,93,0.00,OVC,,0.00,0.0,WeatherDisplay:10.37,2013-01-07 07:17:00,
2013-01-07 02:22:00,51.3,49.3,30.13,North,360,1.1,1.1,93,0.00,OVC,,0.00,0.0,WeatherDisplay:10.37,2013-01-07 07:22:00,
2013-01-07 02:27:00,51.3,49.6,30.13,North,360,4.6,4.6,94,0.00,OVC,,0.00,0.0,WeatherDisplay:10.37,2013-01-07 07:27:00,
2013-01-07 02:32:00,51.2,49.5,30.13,North,360,0.0,0.0,94,0.00,OVC,,0.00,0.0,WeatherDisplay:10.37,2013-01-07 07:32:00,
2013-01-07 02:37:00,51.0,49.3,30.13,North,355,0.0,0.0,94,0.00,OVC,,0.00,0.0,WeatherDisplay:10.37,2013-01-07 07:37:00,
2013-01-07 02:42:00,51.1,49.4,30.13,North,355,4.6,4.6,94,0.00,OVC,,0.00,0.0,WeatherDisplay:10.37,2013-01-07 07:42:00,
2013-01-07 02:47:00,51.1,49.1,30.13,North,350,6.9,6.9,93,0.00,OVC,,0.00,0.0,WeatherDisplay:10.37,2013-01-07 07:47:00,
2013-01-07 02:52:00,51.0,49.0,30.13,NNW,333,8.1,8.1,93,0.00,OVC,,0.00,0.0,WeatherDisplay:10.37,2013-01-07 07:52:00,
2013-01-07 02:57:00,51.1,48.9,30.13,North,11,11.5,11.5,92,0.00,OVC,,0.00,0.0,WeatherDisplay:10.37,2013-01-07 07:57:00,
2013-01-07 06:07:00,47.6,44.8,30.16,North,360,6.9,8.1,90,0.00,BKN,,0.00,0.0,WeatherDisplay:10.37,2013-01-07 11:07:00,
2013-01-07 06:12:00,47.6,44.8,30.16,North,360,5.8,5.8,90,0.00,BKN,,0.00,0.0,WeatherDisplay:10.37,2013-01-07 11:12:00,
2013-01-07 06:17:00,47.7,44.9,30.16,North,350,5.8,7.5,90,0.00,BKN,,0.00,0.0,WeatherDisplay:10.37,2013-01-07 11:17:00,
2013-01-07 06:22:00,47.7,44.9,30.16,North,11,5.8,5.8,90,0.00,BKN,,0.00,0.0,WeatherDisplay:10.37,2013-01-07 11:22:00,
2013-01-07 06:27:00,47.6,44.8,30.16,North,11,5.8,6.4,90,0.00,BKN,,0.00,0.0,WeatherDisplay:10.37,2013-01-07 11:27:00,
2013-01-07 06:32:00,47.6,44.8,30.16,North,11,4.6,4.6,90,0.00,BKN,,0.00,0.0,WeatherDisplay:10.37,2013-01-07 11:32:00,
2013-01-07 06:37:00,47.5,44.7,30.16,North,5,6.9,6.9,90,0.00,BKN,,0.00,0.0,WeatherDisplay:10.37,2013-01-07 11:37:00,
2013-01-07 06:42:00,47.4,44.6,30.16,North,5,4.6,4.6,90,0.00,BKN,,0.00,0.0,WeatherDisplay:10.37,2013-01-07 11:42:00,
2013-01-07 06:47:00,47.4,44.3,30.17,NNE,13,4.6,4.6,89,0.00,BKN,,0.00,0.0,WeatherDisplay:10.37,2013-01-07 11:47:00,
2013-01-07 06:52:00,47.3,44.2,30.17,North,11,2.3,2.3,89,0.00,BKN,,0.00,0.0,WeatherDisplay:10.37,2013-01-07 11:52:00,
2013-01-07 06:57:00,47.1,44.0,30.17,North,11,0.0,0.1,89,0.00,BKN,,0.00,0.0,WeatherDisplay:10.37,2013-01-07 11:57:00,
2013-01-07 07:02:00,47.0,44.2,30.17,North,9,2.8,2.8,90,0.00,BKN,,0.00,0.0,WeatherDisplay:10.37,2013-01-07 12:02:00,
2013-01-07 07:07:00,47.0,44.2,30.17,North,9,1.1,1.1,90,0.00,BKN,,0.00,0.0,WeatherDisplay:10.37,2013-01-07 12:07:00,
2013-01-07 07:12:00,47.0,44.2,30.17,North,9,5.8,5.8,90,0.00,BKN,,0.00,0.0,WeatherDisplay:10.37,2013-01-07 12:12:00,
2013-01-07 07:17:00,47.0,44.2,30.18,North,5,8.1,8.1,90,0.00,BKN,,0.00,0.0,WeatherDisplay:10.37,2013-01-07 12:17:00,
2013-01-07 07:22:00,47.0,44.2,30.18,North,10,5.8,5.8,90,0.00,BKN,,0.00,0.0,WeatherDisplay:10.37,2013-01-07 12:22:00,
2013-01-07 07:27:00,47.0,44.2,30.18,North,5,6.9,6.9,90,0.00,BKN,,0.00,0.0,WeatherDisplay:10.37,2013-01-07 12:27:00,
2013-01-07 07:32:00,47.0,44.2,30.18,North,5,4.6,4.6,90,0.00,BKN,,0.00,7.0,WeatherDisplay:10.37,2013-01-07 12:32:00,
2013-01-07 07:37:00,47.0,44.5,30.18,NNW,337,5.8,5.8,91,0.00,BKN,,0.00,12.0,WeatherDisplay:10.37,2013-01-07 12:37:00,
2013-01-07 07:42:00,47.2,44.7,30.18,NNE,15,5.8,5.8,91,0.00,BKN,,0.00,12.0,WeatherDisplay:10.37,2013-01-07 12:42:00,
2013-01-07 07:47:00,47.2,44.4,30.19,NNE,15,2.3,2.3,90,0.00,BKN,,0.00,16.0,WeatherDisplay:10.37,2013-01-07 12:47:00,
2013-01-07 07:53:00,47.2,44.4,30.19,NNE,15,1.1,1.1,90,0.00,BKN,,0.00,19.0,WeatherDisplay:10.37,2013-01-07 12:53:00,
2013-01-07 07:58:00,47.2,44.4,30.19,NNE,15,2.3,2.3,90,0.00,BKN,,0.00,26.0,WeatherDisplay:10.37,2013-01-07 12:58:00,
2013-01-07 08:03:00,47.3,44.5,30.18,NNE,15,5.8,5.8,90,0.00,BKN,,0.00,32.0,WeatherDisplay:10.37,2013-01-07 13:03:00,
2013-01-07 08:08:00,47.4,44.6,30.18,NNE,15,5.5,5.5,90,0.00,BKN,,0.00,44.0,WeatherDisplay:10.37,2013-01-07 13:08:00,
2013-01-07 08:13:00,47.7,44.9,30.18,North,10,6.9,6.9,90,0.00,BKN,,0.00,51.0,WeatherDisplay:10.37,2013-01-07 13:13:00,
2013-01-07 08:18:00,47.9,45.1,30.18,North,355,6.9,6.9,90,0.00,BKN,,0.00,49.0,WeatherDisplay:10.37,2013-01-07 13:18:00,
2013-01-07 08:23:00,48.1,45.0,30.18,NNW,348,4.6,4.6,89,0.00,BKN,,0.00,51.0,WeatherDisplay:10.37,2013-01-07 13:23:00,
2013-01-07 08:28:00,48.1,44.7,30.18,North,350,5.8,5.8,88,0.00,BKN,,0.00,56.0,WeatherDisplay:10.37,2013-01-07 13:28:00,
2013-01-07 08:33:00,48.2,44.8,30.20,NNE,23,6.9,6.9,88,0.00,BKN,,0.00,90.0,WeatherDisplay:10.37,2013-01-07 13:33:00,
2013-01-07 08:38:00,48.5,45.4,30.20,NNE,23,4.6,4.6,89,0.00,BKN,,0.00,105.0,WeatherDisplay:10.37,2013-01-07 13:38:00,
2013-01-07 08:43:00,48.8,45.4,30.20,NNW,344,4.6,4.6,88,0.00,BKN,,0.00,104.0,WeatherDisplay:10.37,2013-01-07 13:43:00,
2013-01-07 08:48:00,49.0,45.6,30.20,NNE,22,6.9,6.9,88,0.00,BKN,,0.00,107.0,WeatherDisplay:10.37,2013-01-07 13:48:00,
2013-01-07 08:53:00,49.4,46.0,30.20,NNE,22,6.9,6.9,88,0.00,BKN,,0.00,118.0,WeatherDisplay:10.37,2013-01-07 13:53:00,
2013-01-07 08:58:00,49.6,46.2,30.20,NE,40,6.9,6.9,88,0.00,BKN,,0.00,134.0,WeatherDisplay:10.37,2013-01-07 13:58:00,
2013-01-07 09:03:00,49.9,46.5,30.21,NNE,29,2.8,2.8,88,0.00,BKN,,0.00,151.0,WeatherDisplay:10.37,2013-01-07 14:03:00,
2013-01-07 09:08:00,50.3,46.9,30.21,North,350,5.8,5.8,88,0.00,BKN,,0.00,141.0,WeatherDisplay:10.37,2013-01-07 14:08:00,
2013-01-07 09:13:00,50.5,46.8,30.21,North,360,12.7,12.7,87,0.00,BKN,,0.00,223.0,WeatherDisplay:10.37,2013-01-07 14:13:00,
2013-01-07 09:18:00,51.4,48.0,30.20,NNE,14,11.5,11.5,88,0.00,BKN,,0.00,431.0,WeatherDisplay:10.37,2013-01-07 14:18:00,
2013-01-07 09:23:00,52.0,47.9,30.20,NE,52,4.6,4.6,86,0.00,BKN,,0.00,455.0,WeatherDisplay:10.37,2013-01-07 14:23:00,
2013-01-07 09:28:00,52.2,48.1,30.20,NNE,14,9.2,9.2,86,0.00,BKN,,0.00,237.0,WeatherDisplay:10.37,2013-01-07 14:28:00,
2013-01-07 09:33:00,52.3,48.2,30.22,North,350,11.5,11.5,86,0.00,BKN,,0.00,229.0,WeatherDisplay:10.37,2013-01-07 14:33:00,
2013-01-07 09:38:00,52.7,48.6,30.22,NNE,31,8.1,8.1,86,0.00,BKN,,0.00,443.0,WeatherDisplay:10.37,2013-01-07 14:38:00,
2013-01-07 09:43:00,54.5,50.7,30.22,NE,48,5.8,5.8,87,0.00,BKN,,0.00,468.0,WeatherDisplay:10.37,2013-01-07 14:43:00,
2013-01-07 09:48:00,54.8,49.7,30.22,NNE,16,13.8,13.8,83,0.00,BKN,,0.00,251.0,WeatherDisplay:10.37,2013-01-07 14:48:00,
2013-01-07 09:53:00,54.4,50.0,30.22,NNE,32,6.9,6.9,85,0.00,BKN,,0.00,434.0,WeatherDisplay:10.37,2013-01-07 14:53:00,
2013-01-07 09:58:00,55.3,50.5,30.22,East,94,9.2,9.2,84,0.00,BKN,,0.00,265.0,WeatherDisplay:10.37,2013-01-07 14:58:00,
2013-01-07 10:03:00,55.1,50.4,30.22,ENE,73,9.2,9.2,84,0.00,BKN,,0.00,332.0,WeatherDisplay:10.37,2013-01-07 15:03:00,
2013-01-07 10:08:00,55.5,51.1,30.22,NNE,30,13.8,13.8,85,0.00,BKN,,0.00,369.0,WeatherDisplay:10.37,2013-01-07 15:08:00,
2013-01-07 10:13:00,56.1,51.0,30.22,NE,38,13.8,13.8,83,0.00,BKN,,0.00,281.0,WeatherDisplay:10.37,2013-01-07 15:13:00,
2013-01-07 10:18:00,57.2,52.4,30.22,North,5,13.7,13.7,84,0.00,BKN,,0.00,613.0,WeatherDisplay:10.37,2013-01-07 15:18:00,
2013-01-07 10:23:00,57.1,51.7,30.22,North,9,13.8,13.8,82,0.00,BKN,,0.00,287.0,WeatherDisplay:10.37,2013-01-07 15:23:00,
2013-01-07 10:28:00,57.1,51.7,30.22,North,355,11.0,11.0,82,0.00,BKN,,0.00,309.0,WeatherDisplay:10.37,2013-01-07 15:28:00,
2013-01-07 10:33:00,57.4,51.9,30.22,North,11,18.4,18.4,82,0.00,BKN,,0.00,464.0,WeatherDisplay:10.37,2013-01-07 15:33:00,
2013-01-07 10:38:00,57.6,51.8,30.22,NE,40,13.8,13.8,81,0.00,BKN,,0.00,338.0,WeatherDisplay:10.37,2013-01-07 15:38:00,
2013-01-07 10:43:00,57.6,51.8,30.22,North,355,11.5,12.3,81,0.00,BKN,,0.00,406.0,WeatherDisplay:10.37,2013-01-07 15:43:00,
2013-01-07 10:48:00,57.9,51.8,30.22,NE,55,13.8,13.8,80,0.00,BKN,,0.00,366.0,WeatherDisplay:10.37,2013-01-07 15:48:00,
2013-01-07 10:53:00,58.0,52.5,30.22,NE,35,9.2,9.2,82,0.00,BKN,,0.00,417.0,WeatherDisplay:10.37,2013-01-07 15:53:00,
2013-01-07 10:58:00,59.1,53.6,30.22,NE,43,12.4,12.4,82,0.00,BKN,,0.00,327.0,WeatherDisplay:10.37,2013-01-07 15:58:00,
2013-01-07 11:03:00,58.8,52.6,30.22,NNE,20,12.4,12.4,80,0.00,BKN,,0.00,309.0,WeatherDisplay:10.37,2013-01-07 16:03:00,
2013-01-07 11:08:00,58.6,52.4,30.22,NNE,21,13.8,13.8,80,0.00,BKN,,0.00,258.0,WeatherDisplay:10.37,2013-01-07 16:08:00,
2013-01-07 11:13:00,58.7,52.5,30.22,North,360,11.5,11.5,80,0.00,BKN,,0.00,278.0,WeatherDisplay:10.37,2013-01-07 16:13:00,
2013-01-07 11:18:00,58.8,53.3,30.23,ENE,78,8.1,8.1,82,0.00,BKN,,0.00,297.0,WeatherDisplay:10.37,2013-01-07 16:18:00,
2013-01-07 11:23:00,59.0,53.5,30.23,NNW,344,6.9,6.9,82,0.00,BKN,,0.00,251.0,WeatherDisplay:10.37,2013-01-07 16:23:00,
2013-01-07 11:28:00,59.5,54.0,30.23,NNE,29,8.1,8.1,82,0.00,BKN,,0.00,404.0,WeatherDisplay:10.37,2013-01-07 16:28:00,
2013-01-07 11:33:00,59.5,53.7,30.21,East,81,11.5,11.5,81,0.00,BKN,,0.00,455.0,WeatherDisplay:10.37,2013-01-07 16:33:00,
2013-01-07 11:38:00,59.8,53.6,30.21,East,82,6.9,6.9,80,0.00,BKN,,0.00,339.0,WeatherDisplay:10.37,2013-01-07 16:38:00,
2013-01-07 11:43:00,60.1,53.6,30.21,NNE,22,13.8,13.8,79,0.00,BKN,,0.00,332.0,WeatherDisplay:10.37,2013-01-07 16:43:00,
2013-01-07 11:48:00,59.8,53.6,30.21,NNE,31,9.2,9.2,80,0.00,BKN,,0.00,360.0,WeatherDisplay:10.37,2013-01-07 16:48:00,
2013-01-07 11:53:00,60.4,53.9,30.21,NE,44,18.4,18.4,79,0.00,BKN,,0.00,473.0,WeatherDisplay:10.37,2013-01-07 16:53:00,
2013-01-07 11:58:00,60.7,54.5,30.21,ENE,61,11.0,11.0,80,0.00,BKN,,0.00,487.0,WeatherDisplay:10.37,2013-01-07 16:58:00,
2013-01-07 12:03:00,61.6,55.4,30.20,NNE,15,15.0,15.0,80,0.00,BKN,,0.00,510.0,WeatherDisplay:10.37,2013-01-07 17:03:00,
2013-01-07 12:08:00,62.3,55.0,30.20,East,85,18.4,18.4,77,0.01,RA,,0.01,468.0,WeatherDisplay:10.37,2013-01-07 17:08:00,
2013-01-07 12:13:00,62.1,55.2,30.20,NNE,15,8.1,8.1,78,0.01,RA,,0.01,482.0,WeatherDisplay:10.37,2013-01-07 17:13:00,
2013-01-07 12:18:00,62.0,54.3,30.20,NNE,22,9.2,9.2,76,0.01,BKN,,0.01,334.0,WeatherDisplay:10.37,2013-01-07 17:18:00,
2013-01-07 12:23:00,61.8,54.2,30.20,North,5,11.5,15.1,76,0.01,BKN,,0.01,327.0,WeatherDisplay:10.37,2013-01-07 17:23:00,
2013-01-07 12:28:00,61.6,54.7,30.20,NNE,16,13.8,15.0,78,0.01,BKN,,0.01,352.0,WeatherDisplay:10.37,2013-01-07 17:28:00,
2013-01-07 12:33:00,61.6,54.7,30.19,NE,39,3.5,6.0,78,0.01,BKN,,0.01,362.0,WeatherDisplay:10.37,2013-01-07 17:33:00,
2013-01-07 12:38:00,62.3,55.0,30.19,NNE,24,11.5,11.5,77,0.01,BKN,,0.01,390.0,WeatherDisplay:10.37,2013-01-07 17:38:00,
2013-01-07 12:43:00,62.5,55.2,30.19,NNE,26,9.2,10.3,77,0.01,BKN,,0.01,408.0,WeatherDisplay:10.37,2013-01-07 17:43:00,
2013-01-07 12:48:00,62.1,54.1,30.18,NNE,22,19.6,19.6,75,0.01,BKN,,0.01,327.0,WeatherDisplay:10.37,2013-01-07 17:48:00,
2013-01-07 12:53:00,62.0,54.7,30.18,NNE,17,16.1,16.1,77,0.01,BKN,,0.01,346.0,WeatherDisplay:10.37,2013-01-07 17:53:00,
2013-01-07 12:58:00,61.8,54.2,30.18,NE,55,13.8,13.8,76,0.01,BKN,,0.01,438.0,WeatherDisplay:10.37,2013-01-07 17:58:00,
2013-01-07 13:03:00,62.2,54.9,30.18,NNE,19,9.2,9.2,77,0.01,BKN,,0.01,522.0,WeatherDisplay:10.37,2013-01-07 18:03:00,
2013-01-07 13:08:00,62.7,55.0,30.18,NNE,21,8.1,8.1,76,0.00,BKN,,0.01,322.0,WeatherDisplay:10.37,2013-01-07 18:08:00,
2013-01-07 13:13:00,62.7,54.7,30.18,NE,38,16.1,16.1,75,0.00,BKN,,0.01,719.0,WeatherDisplay:10.37,2013-01-07 18:13:00,
2013-01-07 13:18:00,62.8,55.1,30.18,NE,56,6.9,7.3,76,0.00,BKN,,0.01,316.0,WeatherDisplay:10.37,2013-01-07 18:18:00,
2013-01-07 13:23:00,62.6,54.6,30.18,NNW,333,19.6,19.6,75,0.00,BKN,,0.01,279.0,WeatherDisplay:10.37,2013-01-07 18:23:00,
2013-01-07 13:28:00,62.2,54.5,30.18,NNE,33,12.7,12.9,76,0.00,BKN,,0.01,271.0,WeatherDisplay:10.37,2013-01-07 18:28:00,
2013-01-07 13:33:00,62.2,54.5,30.16,NNE,20,11.0,11.0,76,0.00,BKN,,0.01,292.0,WeatherDisplay:10.37,2013-01-07 18:33:00,
2013-01-07 13:38:00,62.1,54.4,30.16,NNE,30,13.7,16.9,76,0.00,BKN,,0.01,265.0,WeatherDisplay:10.37,2013-01-07 18:38:00,
2013-01-07 13:43:00,62.0,54.3,30.16,NNE,24,6.9,8.8,76,0.00,BKN,,0.01,260.0,WeatherDisplay:10.37,2013-01-07 18:43:00,
2013-01-07 13:48:00,61.8,53.8,30.16,NNE,15,18.4,18.4,75,0.00,BKN,,0.01,276.0,WeatherDisplay:10.37,2013-01-07 18:48:00,
2013-01-07 13:53:00,62.2,54.5,30.16,NNE,24,13.8,16.4,76,0.00,BKN,,0.01,540.0,WeatherDisplay:10.37,2013-01-07 18:53:00,
2013-01-07 13:58:00,63.7,55.6,30.16,NNE,25,13.7,13.7,75,0.00,BKN,,0.01,629.0,WeatherDisplay:10.37,2013-01-07 18:58:00,
2013-01-07 14:03:00,64.0,55.2,30.17,ENE,74,9.2,10.6,73,0.00,BKN,,0.01,626.0,WeatherDisplay:10.37,2013-01-07 19:03:00,
2013-01-07 14:08:00,63.3,55.2,30.17,NNE,20,16.1,16.1,75,0.00,BKN,,0.01,362.0,WeatherDisplay:10.37,2013-01-07 19:08:00,
2013-01-07 14:14:00,63.3,55.2,30.17,NNE,24,16.1,16.1,75,0.00,BKN,,0.01,473.0,WeatherDisplay:10.37,2013-01-07 19:14:00,
2013-01-07 14:19:00,63.6,55.5,30.16,North,5,13.8,13.8,75,0.00,BKN,,0.01,396.0,WeatherDisplay:10.37,2013-01-07 19:19:00,
2013-01-07 14:24:00,64.2,56.1,30.16,NE,43,8.1,8.1,75,0.00,BKN,,0.01,512.0,WeatherDisplay:10.37,2013-01-07 19:24:00,
2013-01-07 14:29:00,64.2,55.4,30.16,NE,34,11.0,11.5,73,0.00,BKN,,0.01,408.0,WeatherDisplay:10.37,2013-01-07 19:29:00,
2013-01-07 14:34:00,63.8,55.7,30.17,North,9,11.5,11.5,75,0.00,BKN,,0.01,378.0,WeatherDisplay:10.37,2013-01-07 19:34:00,
2013-01-07 14:39:00,63.7,55.6,30.17,NNE,16,1.1,1.9,75,0.00,BKN,,0.01,216.0,WeatherDisplay:10.37,2013-01-07 19:39:00,
2013-01-07 14:44:00,63.7,55.3,30.17,ENE,69,12.7,12.7,74,0.00,BKN,,0.01,199.0,WeatherDisplay:10.37,2013-01-07 19:44:00,
2013-01-07 14:49:00,64.0,55.5,30.17,North,360,13.8,13.8,74,0.00,BKN,,0.01,446.0,WeatherDisplay:10.37,2013-01-07 19:49:00,
2013-01-07 14:54:00,64.2,55.4,30.17,NE,45,19.6,19.6,73,0.00,BKN,,0.01,457.0,WeatherDisplay:10.37,2013-01-07 19:54:00,
2013-01-07 14:59:00,64.0,54.8,30.17,NE,34,16.1,16.4,72,0.00,BKN,,0.01,448.0,WeatherDisplay:10.37,2013-01-07 19:59:00,
2013-01-07 15:04:00,64.1,55.3,30.17,NE,44,2.3,12.3,73,0.00,BKN,,0.01,432.0,WeatherDisplay:10.37,2013-01-07 20:04:00,
2013-01-07 15:09:00,64.4,55.2,30.17,NNE,14,12.7,12.7,72,0.00,BKN,,0.01,408.0,WeatherDisplay:10.37,2013-01-07 20:09:00,
2013-01-07 15:14:00,64.4,55.6,30.17,NE,35,9.6,9.9,73,0.00,BKN,,0.01,392.0,WeatherDisplay:10.37,2013-01-07 20:14:00,
2013-01-07 15:19:00,64.0,55.2,30.18,North,355,9.2,9.2,73,0.00,BKN,,0.01,378.0,WeatherDisplay:10.37,2013-01-07 20:19:00,
2013-01-07 15:24:00,63.7,54.9,30.18,NNE,17,11.5,16.2,73,0.00,BKN,,0.01,367.0,WeatherDisplay:10.37,2013-01-07 20:24:00,
2013-01-07 15:29:00,64.0,55.5,30.18,NNE,18,8.1,13.0,74,0.00,BKN,,0.01,352.0,WeatherDisplay:10.37,2013-01-07 20:29:00,
2013-01-07 15:34:00,63.4,55.0,30.18,North,5,18.4,19.4,74,0.00,BKN,,0.01,339.0,WeatherDisplay:10.37,2013-01-07 20:34:00,
2013-01-07 15:39:00,63.5,55.4,30.18,ENE,68,6.9,6.9,75,0.00,BKN,,0.01,315.0,WeatherDisplay:10.37,2013-01-07 20:39:00,
2013-01-07 15:44:00,63.1,54.7,30.18,ENE,58,12.7,12.7,74,0.00,BKN,,0.01,308.0,WeatherDisplay:10.37,2013-01-07 20:44:00,
2013-01-07 15:49:00,62.3,53.9,30.18,NNE,23,18.4,18.4,74,0.00,BKN,,0.01,285.0,WeatherDisplay:10.37,2013-01-07 20:49:00,
2013-01-07 15:54:00,61.6,53.6,30.18,NNW,338,12.7,12.7,75,0.00,BKN,,0.01,135.0,WeatherDisplay:10.37,2013-01-07 20:54:00,
2013-01-07 15:59:00,61.4,53.8,30.18,NNE,25,13.8,15.8,76,0.00,BKN,,0.01,262.0,WeatherDisplay:10.37,2013-01-07 20:59:00,
2013-01-07 16:04:00,61.4,53.8,30.18,East,86,12.7,12.7,76,0.00,SCT,,0.01,206.0,WeatherDisplay:10.37,2013-01-07 21:04:00,
2013-01-07 16:09:00,61.3,53.7,30.18,ENE,60,13.8,13.8,76,0.00,SCT,,0.01,105.0,WeatherDisplay:10.37,2013-01-07 21:09:00,
2013-01-07 16:14:00,61.0,53.4,30.18,NE,34,13.8,13.9,76,0.00,SCT,,0.01,98.0,WeatherDisplay:10.37,2013-01-07 21:14:00,
2013-01-07 16:19:00,60.2,52.6,30.18,NNE,18,23.0,23.0,76,0.00,SCT,,0.01,81.0,WeatherDisplay:10.37,2013-01-07 21:19:00,
2013-01-07 16:24:00,59.4,52.5,30.18,NNE,26,16.1,16.1,78,0.00,SCT,,0.01,90.0,WeatherDisplay:10.37,2013-01-07 21:24:00,
2013-01-07 16:29:00,59.6,53.1,30.18,NNE,13,11.0,11.0,79,0.00,SCT,,0.01,141.0,WeatherDisplay:10.37,2013-01-07 21:29:00,
2013-01-07 16:34:00,59.5,53.0,30.18,North,9,11.5,13.3,79,0.00,SCT,,0.01,128.0,WeatherDisplay:10.37,2013-01-07 21:34:00,
2013-01-07 16:39:00,59.3,52.8,30.18,NE,51,25.3,25.3,79,0.00,SCT,,0.01,107.0,WeatherDisplay:10.37,2013-01-07 21:39:00,
2013-01-07 16:44:00,58.8,52.6,30.18,NE,35,12.7,12.7,80,0.00,SCT,,0.01,69.0,WeatherDisplay:10.37,2013-01-07 21:44:00,
2013-01-07 16:49:00,58.6,52.8,30.18,NNE,23,13.7,15.5,81,0.00,SCT,,0.01,91.0,WeatherDisplay:10.37,2013-01-07 21:49:00,
2013-01-07 16:54:00,58.4,52.6,30.18,North,5,9.2,10.0,81,0.00,SCT,,0.01,44.0,WeatherDisplay:10.37,2013-01-07 21:54:00,
2013-01-07 16:59:00,58.2,52.4,30.18,North,360,18.4,18.4,81,0.00,SCT,,0.01,35.0,WeatherDisplay:10.37,2013-01-07 21:59:00,
2013-01-07 17:05:00,58.1,52.6,30.18,North,11,18.4,18.4,82,0.00,SCT,,0.01,26.0,WeatherDisplay:10.37,2013-01-07 22:05:00,
2013-01-07 17:10:00,57.9,52.4,30.18,North,355,12.7,14.9,82,0.00,SCT,,0.01,25.0,WeatherDisplay:10.37,2013-01-07 22:10:00,
2013-01-07 17:15:00,57.7,52.2,30.18,NE,38,8.1,9.1,82,0.00,SCT,,0.01,18.0,WeatherDisplay:10.37,2013-01-07 22:15:00,
2013-01-07 17:20:00,57.6,52.1,30.18,NNE,25,10.0,14.0,82,0.00,SCT,,0.01,12.0,WeatherDisplay:10.37,2013-01-07 22:20:00,
2013-01-07 17:25:00,57.4,52.3,30.18,NNE,25,10.0,15.0,83,0.00,SCT,,0.01,11.0,WeatherDisplay:10.37,2013-01-07 22:25:00,
2013-01-07 17:30:00,57.2,52.1,30.19,NNW,327,8.1,8.9,83,0.00,SCT,,0.01,9.0,WeatherDisplay:10.37,2013-01-07 22:30:00,
2013-01-07 17:35:00,57.0,52.2,30.19,NNE,14,9.2,10.7,84,0.00,SCT,,0.01,7.0,WeatherDisplay:10.37,2013-01-07 22:35:00,
2013-01-07 17:40:00,56.8,52.1,30.19,NNE,23,9.0,12.0,84,0.00,SCT,,0.01,5.0,WeatherDisplay:10.37,2013-01-07 22:40:00,
2013-01-07 17:45:00,56.7,51.9,30.19,North,5,11.5,11.5,84,0.00,SCT,,0.01,0.0,WeatherDisplay:10.37,2013-01-07 22:45:00,
2013-01-07 17:50:00,56.6,52.1,30.19,NNE,28,11.5,11.6,85,0.00,SCT,,0.01,0.0,WeatherDisplay:10.37,2013-01-07 22:50:00,
2013-01-07 17:55:00,56.5,52.0,30.19,NNE,20,6.0,14.0,85,0.00,SCT,,0.01,0.0,WeatherDisplay:10.37,2013-01-07 22:55:00,
2013-01-07 18:00:00,56.4,51.9,30.19,North,355,11.5,11.5,85,0.00,SCT,,0.01,0.0,WeatherDisplay:10.37,2013-01-07 23:00:00,
2013-01-07 18:05:00,56.5,52.0,30.19,NNE,18,6.0,15.0,85,0.00,SCT,,0.01,0.0,WeatherDisplay:10.37,2013-01-07 23:05:00,
2013-01-07 18:10:00,56.5,52.3,30.19,NNE,14,10.0,17.0,86,0.00,SCT,,0.01,0.0,WeatherDisplay:10.37,2013-01-07 23:10:00,
2013-01-07 18:15:00,56.4,52.3,30.19,North,11,5.8,12.7,86,0.00,SCT,,0.01,0.0,WeatherDisplay:10.37,2013-01-07 23:15:00,
2013-01-07 18:20:00,56.5,52.4,30.19,NNE,12,8.0,13.0,86,0.00,SCT,,0.01,0.0,WeatherDisplay:10.37,2013-01-07 23:20:00,
2013-01-07 18:25:00,56.5,52.4,30.19,NNE,23,8.0,14.0,86,0.00,SCT,,0.01,0.0,WeatherDisplay:10.37,2013-01-07 23:25:00,
2013-01-07 18:30:00,56.6,52.5,30.20,NNW,338,9.6,12.8,86,0.00,SCT,,0.01,0.0,WeatherDisplay:10.37,2013-01-07 23:30:00,
2013-01-07 18:35:00,56.6,52.5,30.20,NE,40,11.5,11.5,86,0.00,SCT,,0.01,0.0,WeatherDisplay:10.37,2013-01-07 23:35:00,
2013-01-07 18:40:00,56.6,52.5,30.20,North,355,11.5,11.5,86,0.00,SCT,,0.01,0.0,WeatherDisplay:10.37,2013-01-07 23:40:00,
2013-01-07 18:45:00,56.6,52.5,30.19,North,9,16.1,16.1,86,0.00,SCT,,0.01,0.0,WeatherDisplay:10.37,2013-01-07 23:45:00,
2013-01-07 18:50:00,56.7,52.6,30.19,NE,48,8.1,8.7,86,0.00,SCT,,0.01,0.0,WeatherDisplay:10.37,2013-01-07 23:50:00,
2013-01-07 18:55:00,56.8,52.7,30.19,NNE,13,13.8,13.8,86,0.00,SCT,,0.01,0.0,WeatherDisplay:10.37,2013-01-07 23:55:00,
2013-01-07 19:00:00,56.8,52.7,30.19,NE,42,12.7,12.7,86,0.00,SCT,,0.01,0.0,WeatherDisplay:10.37,2013-01-08 00:00:00,
2013-01-07 19:05:00,56.8,52.7,30.19,NE,40,11.5,11.5,86,0.00,BKN,,0.01,0.0,WeatherDisplay:10.37,2013-01-08 00:05:00,
2013-01-07 19:10:00,56.8,52.7,30.19,North,5,9.2,9.2,86,0.00,BKN,,0.01,0.0,WeatherDisplay:10.37,2013-01-08 00:10:00,
2013-01-07 19:15:00,56.9,52.8,30.20,North,355,8.3,8.3,86,0.00,BKN,,0.01,0.0,WeatherDisplay:10.37,2013-01-08 00:15:00,
2013-01-07 19:20:00,57.0,52.9,30.20,NNE,29,12.7,13.7,86,0.00,BKN,,0.01,0.0,WeatherDisplay:10.37,2013-01-08 00:20:00,
2013-01-07 19:25:00,57.0,52.9,30.20,NNE,16,6.9,10.6,86,0.00,BKN,,0.01,0.0,WeatherDisplay:10.37,2013-01-08 00:25:00,
2013-01-07 19:30:00,57.1,52.6,30.20,North,355,9.2,9.4,85,0.00,BKN,,0.01,0.0,WeatherDisplay:10.37,2013-01-08 00:30:00,
2013-01-07 19:35:00,57.2,52.7,30.20,NE,35,5.8,6.2,85,0.00,BKN,,0.01,0.0,WeatherDisplay:10.37,2013-01-08 00:35:00,
2013-01-07 19:40:00,57.2,53.0,30.20,North,5,12.7,12.7,86,0.00,BKN,,0.01,0.0,WeatherDisplay:10.37,2013-01-08 00:40:00,
2013-01-07 19:45:00,57.2,53.0,30.20,NNE,24,8.1,8.1,86,0.00,BKN,,0.01,0.0,WeatherDisplay:10.37,2013-01-08 00:45:00,
2013-01-07 19:50:00,57.2,53.0,30.20,North,10,9.2,9.2,86,0.00,BKN,,0.01,0.0,WeatherDisplay:10.37,2013-01-08 00:50:00,
2013-01-07 19:55:00,57.2,53.0,30.20,NNE,32,13.8,13.8,86,0.00,BKN,,0.01,0.0,WeatherDisplay:10.37,2013-01-08 00:55:00,
2013-01-07 20:00:00,57.2,53.0,30.19,NNE,24,9.2,9.2,86,0.00,BKN,,0.01,0.0,WeatherDisplay:10.37,2013-01-08 01:00:00,
2013-01-07 20:05:00,57.3,52.8,30.19,NNE,15,5.8,5.8,85,0.00,BKN,,0.01,0.0,WeatherDisplay:10.37,2013-01-08 01:05:00,
2013-01-07 20:10:00,57.4,53.2,30.19,NE,38,9.2,9.2,86,0.00,BKN,,0.01,0.0,WeatherDisplay:10.37,2013-01-08 01:10:00,
2013-01-07 20:15:00,57.5,53.0,30.20,NNE,32,6.9,6.9,85,0.00,BKN,,0.01,0.0,WeatherDisplay:10.37,2013-01-08 01:15:00,
2013-01-07 20:20:00,57.5,53.0,30.20,North,360,9.2,9.2,85,0.00,BKN,,0.01,0.0,WeatherDisplay:10.37,2013-01-08 01:20:00,
2013-01-07 20:25:00,57.6,53.1,30.20,NNE,33,4.6,6.2,85,0.00,BKN,,0.01,0.0,WeatherDisplay:10.37,2013-01-08 01:25:00,
2013-01-07 20:30:00,57.6,53.1,30.20,NE,36,5.8,5.8,85,0.00,BKN,,0.01,0.0,WeatherDisplay:10.37,2013-01-08 01:30:00,
2013-01-07 20:35:00,57.7,53.2,30.20,North,10,8.1,9.5,85,0.00,BKN,,0.01,0.0,WeatherDisplay:10.37,2013-01-08 01:35:00,
2013-01-07 20:40:00,57.7,53.2,30.20,NE,46,9.2,10.7,85,0.00,BKN,,0.01,0.0,WeatherDisplay:10.37,2013-01-08 01:40:00,
2013-01-07 20:45:00,57.7,53.2,30.20,NNE,20,8.1,8.1,85,0.00,BKN,,0.01,0.0,WeatherDisplay:10.37,2013-01-08 01:45:00,
2013-01-07 20:50:00,57.7,53.2,30.20,NNE,17,9.2,9.2,85,0.00,BKN,,0.01,0.0,WeatherDisplay:10.37,2013-01-08 01:50:00,
2013-01-07 20:55:00,57.7,53.2,30.20,NNE,21,6.9,8.1,85,0.00,BKN,,0.01,0.0,WeatherDisplay:10.37,2013-01-08 01:55:00,
2013-01-07 21:00:00,57.7,53.2,30.20,NNE,24,6.9,7.2,85,0.00,BKN,,0.01,0.0,WeatherDisplay:10.37,2013-01-08 02:00:00,
2013-01-07 21:05:00,57.7,53.2,30.20,North,355,8.1,8.1,85,0.00,BKN,,0.01,0.0,WeatherDisplay:10.37,2013-01-08 02:05:00,
2013-01-07 21:10:00,57.7,53.2,30.20,NE,45,11.5,11.5,85,0.00,BKN,,0.01,0.0,WeatherDisplay:10.37,2013-01-08 02:10:00,
2013-01-07 21:15:00,57.7,53.2,30.20,NNE,31,11.5,11.5,85,0.00,BKN,,0.01,0.0,WeatherDisplay:10.37,2013-01-08 02:15:00,
2013-01-07 21:20:00,57.7,53.2,30.20,NE,49,6.9,8.0,85,0.00,BKN,,0.01,0.0,WeatherDisplay:10.37,2013-01-08 02:20:00,
2013-01-07 21:25:00,57.7,53.2,30.20,North,5,5.8,5.8,85,0.00,BKN,,0.01,0.0,WeatherDisplay:10.37,2013-01-08 02:25:00,
2013-01-07 21:30:00,57.7,53.2,30.19,NNE,15,5.8,7.1,85,0.00,BKN,,0.01,0.0,WeatherDisplay:10.37,2013-01-08 02:30:00,
2013-01-07 21:35:00,57.7,53.2,30.19,NE,43,4.6,4.6,85,0.00,BKN,,0.01,0.0,WeatherDisplay:10.37,2013-01-08 02:35:00,
2013-01-07 21:40:00,57.6,53.4,30.19,NE,46,11.5,11.5,86,0.00,BKN,,0.01,0.0,WeatherDisplay:10.37,2013-01-08 02:40:00,
2013-01-07 21:45:00,57.6,53.4,30.19,NE,35,8.1,8.1,86,0.00,BKN,,0.01,0.0,WeatherDisplay:10.37,2013-01-08 02:45:00,
2013-01-07 21:50:00,57.6,53.4,30.19,North,5,6.9,8.9,86,0.00,BKN,,0.01,0.0,WeatherDisplay:10.37,2013-01-08 02:50:00,
2013-01-07 21:55:00,57.7,53.5,30.19,North,5,12.7,12.7,86,0.00,BKN,,0.01,0.0,WeatherDisplay:10.37,2013-01-08 02:55:00,
2013-01-07 22:00:00,57.8,53.6,30.19,NNE,30,8.1,8.1,86,0.00,BKN,,0.01,0.0,WeatherDisplay:10.37,2013-01-08 03:00:00,
2013-01-07 22:05:00,57.9,53.4,30.19,NE,40,12.7,12.7,85,0.00,BKN,,0.01,0.0,WeatherDisplay:10.37,2013-01-08 03:05:00,
2013-01-07 22:10:00,58.0,53.5,30.19,NE,39,4.6,4.6,85,0.00,BKN,,0.01,0.0,WeatherDisplay:10.37,2013-01-08 03:10:00,
2013-01-07 22:15:00,58.1,53.6,30.19,NNE,22,5.8,5.8,85,0.00,BKN,,0.01,0.0,WeatherDisplay:10.37,2013-01-08 03:15:00,
2013-01-07 22:20:00,58.1,53.6,30.19,NNE,22,6.9,6.9,85,0.00,BKN,,0.01,0.0,WeatherDisplay:10.37,2013-01-08 03:20:00,
2013-01-07 22:25:00,58.1,53.6,30.19,NNE,31,8.1,8.1,85,0.00,BKN,,0.01,0.0,WeatherDisplay:10.37,2013-01-08 03:25:00,
2013-01-07 22:30:00,58.2,53.7,30.19,NNE,24,5.8,6.9,85,0.00,BKN,,0.01,0.0,WeatherDisplay:10.37,2013-01-08 03:30:00,
2013-01-07 22:35:00,58.2,53.7,30.19,NNE,15,6.9,7.4,85,0.00,BKN,,0.01,0.0,WeatherDisplay:10.37,2013-01-08 03:35:00,
2013-01-07 22:40:00,58.2,53.7,30.19,NNE,29,5.8,5.8,85,0.00,BKN,,0.01,0.0,WeatherDisplay:10.37,2013-01-08 03:40:00,
2013-01-07 22:45:00,58.2,54.0,30.19,NE,55,6.9,6.9,86,0.00,BKN,,0.01,0.0,WeatherDisplay:10.37,2013-01-08 03:45:00,
2013-01-07 22:50:00,58.3,53.8,30.19,NNE,23,4.6,0.0,85,0.00,BKN,,0.01,0.0,WeatherDisplay:10.37,2013-01-08 03:50:00,
2013-01-07 22:55:00,58.3,53.8,30.19,NNE,22,4.6,5.0,85,0.00,BKN,,0.01,0.0,WeatherDisplay:10.37,2013-01-08 03:55:00,
2013-01-07 23:01:00,58.2,54.0,30.19,NNE,22,2.8,2.8,86,0.00,BKN,,0.01,0.0,WeatherDisplay:10.37,2013-01-08 04:01:00,
2013-01-07 23:06:00,58.0,53.8,30.19,NNE,27,6.9,7.5,86,0.00,BKN,,0.01,0.0,WeatherDisplay:10.37,2013-01-08 04:06:00,
2013-01-07 23:11:00,58.0,53.8,30.19,NNE,22,5.8,5.8,86,0.00,BKN,,0.01,0.0,WeatherDisplay:10.37,2013-01-08 04:11:00,
2013-01-07 23:16:00,57.8,53.6,30.18,NE,42,5.8,6.2,86,0.00,BKN,,0.01,0.0,WeatherDisplay:10.37,2013-01-08 04:16:00,
2013-01-07 23:21:00,57.7,53.9,30.18,NE,42,4.6,4.6,87,0.00,BKN,,0.01,0.0,WeatherDisplay:10.37,2013-01-08 04:21:00,
2013-01-07 23:26:00,57.6,53.8,30.18,ENE,57,4.6,4.6,87,0.00,BKN,,0.01,0.0,WeatherDisplay:10.37,2013-01-08 04:26:00,
2013-01-07 23:31:00,57.6,53.8,30.17,NNE,33,6.9,7.7,87,0.00,BKN,,0.01,0.0,WeatherDisplay:10.37,2013-01-08 04:31:00,
2013-01-07 23:36:00,57.7,54.2,30.17,NNE,17,2.8,3.8,88,0.00,BKN,,0.01,0.0,WeatherDisplay:10.37,2013-01-08 04:36:00,
2013-01-07 23:41:00,57.7,54.2,30.17,NE,40,8.1,9.2,88,0.00,BKN,,0.01,0.0,WeatherDisplay:10.37,2013-01-08 04:41:00,
2013-01-07 23:46:00,57.8,54.3,30.17,NNE,28,6.9,6.9,88,0.00,BKN,,0.01,0.0,WeatherDisplay:10.37,2013-01-08 04:46:00,
2013-01-07 23:51:00,57.8,54.3,30.17,NE,39,4.6,4.6,88,0.00,BKN,,0.01,0.0,WeatherDisplay:10.37,2013-01-08 04:51:00,
2013-01-07 23:56:00,57.8,54.3,30.17,NE,34,2.3,2.3,88,0.00,BKN,,0.01,0.0,WeatherDisplay:10.37,2013-01-08 04:56:00,